createdAt,value
2022-08-16T00:01:33.861Z,86.44
2022-08-16T00:04:05.313Z,86.85
2022-08-16T00:06:34.318Z,86.59
2022-08-16T00:09:05.954Z,86.46
2022-08-16T00:11:35.022Z,86.07
2022-08-16T00:14:08.864Z,85.86
2022-08-16T00:17:05.424Z,86.09
2022-08-16T00:19:41.537Z,86.45
2022-08-16T00:22:13.669Z,86.35
2022-08-16T00:24:46.918Z,86.28
2022-08-16T00:27:18.944Z,86.27
2022-08-16T00:29:48.312Z,86.42
2022-08-16T00:32:32.924Z,86.45
2022-08-16T00:35:01.923Z,86.29
2022-08-16T00:37:57.033Z,86.19
2022-08-16T00:40:34.143Z,86.53
2022-08-16T00:43:12.123Z,86.56
2022-08-16T00:45:58.090Z,86.51
2022-08-16T00:48:44.046Z,86.54
2022-08-16T00:51:17.680Z,86.53
2022-08-16T00:53:50.208Z,86.57
2022-08-16T00:56:56.916Z,88.18
2022-08-16T00:59:16.577Z,87.34
2022-08-16T01:01:45.699Z,86.71
2022-08-16T01:04:30.256Z,86.43
2022-08-16T01:07:03.245Z,86.59
2022-08-16T01:09:34.084Z,86.56
2022-08-16T01:12:08.608Z,88.06
2022-08-16T01:14:47.150Z,86.88
2022-08-16T01:17:20.061Z,86.56
2022-08-16T01:19:57.390Z,86.45
2022-08-16T01:22:57.556Z,86.36
2022-08-16T01:25:45.382Z,86.81
2022-08-16T01:28:30.543Z,86.98
2022-08-16T01:30:59.958Z,86.45
2022-08-16T01:33:33.271Z,86.13
2022-08-16T01:36:09.487Z,86.09
2022-08-16T01:38:49.108Z,86.04
2022-08-16T01:41:31.215Z,86.12
2022-08-16T01:44:03.344Z,85.98
2022-08-16T01:46:40.783Z,85.78
2022-08-16T01:49:17.161Z,85.93
2022-08-16T01:51:55.225Z,85.81
2022-08-16T01:54:31.452Z,85.89
2022-08-16T01:57:03.206Z,85.69
2022-08-16T01:59:32.976Z,85.63
2022-08-16T02:02:27.094Z,85.65
2022-08-16T02:04:54.994Z,86.06
2022-08-16T02:07:27.925Z,85.81
2022-08-16T02:10:02.285Z,85.52
2022-08-16T02:12:56.012Z,85.80
2022-08-16T02:15:35.412Z,87.58
2022-08-16T02:18:12.723Z,86.17
2022-08-16T02:20:47.495Z,85.52
2022-08-16T02:23:18.508Z,85.46
2022-08-16T02:25:52.177Z,85.43
2022-08-16T02:28:26.833Z,85.54
2022-08-16T02:30:58.422Z,85.46
2022-08-16T02:33:42.793Z,85.38
2022-08-16T02:36:47.778Z,85.79
2022-08-16T02:39:12.679Z,85.76
2022-08-16T02:41:46.340Z,85.37
2022-08-16T02:44:27.095Z,85.44
2022-08-16T02:46:57.915Z,85.31
2022-08-16T02:49:58.482Z,85.07
2022-08-16T02:52:24.785Z,85.42
2022-08-16T02:55:01.316Z,85.36
2022-08-16T02:57:35.751Z,85.14
2022-08-16T03:00:33.923Z,85.34
2022-08-16T03:03:03.351Z,85.63
2022-08-16T03:05:32.774Z,85.31
2022-08-16T03:08:02.461Z,85.23
2022-08-16T03:10:34.437Z,85.35
2022-08-16T03:13:12.628Z,87.10
2022-08-16T03:15:50.909Z,85.96
2022-08-16T03:18:34.766Z,85.49
2022-08-16T03:21:10.115Z,85.62
2022-08-16T03:23:42.997Z,85.31
2022-08-16T03:26:14.020Z,85.26
2022-08-16T03:28:42.943Z,85.29
2022-08-16T03:31:12.157Z,85.28
2022-08-16T03:33:44.002Z,85.43
2022-08-16T03:36:30.427Z,87.20
2022-08-16T03:39:04.684Z,86.31
2022-08-16T03:41:49.889Z,85.83
2022-08-16T03:44:44.325Z,85.80
2022-08-16T03:47:11.195Z,86.02
2022-08-16T03:49:41.520Z,85.57
2022-08-16T03:52:13.617Z,85.46
2022-08-16T03:54:53.585Z,85.53
2022-08-16T03:57:31.396Z,85.73
2022-08-16T04:00:20.752Z,85.75
2022-08-16T04:03:09.727Z,86.28
2022-08-16T04:05:46.788Z,85.97
2022-08-16T04:08:23.417Z,85.86
2022-08-16T04:11:00.536Z,86.05
2022-08-16T04:14:00.334Z,85.78
2022-08-16T04:16:27.833Z,86.03
2022-08-16T04:19:17.077Z,86.18
2022-08-16T04:21:47.405Z,85.68
2022-08-16T04:24:20.067Z,85.80
2022-08-16T04:26:51.948Z,85.77
2022-08-16T04:29:24.982Z,85.71
2022-08-16T04:31:57.910Z,85.81
2022-08-16T04:34:32.963Z,85.75
2022-08-16T04:37:04.091Z,85.71
2022-08-16T04:39:46.595Z,85.78
2022-08-16T04:42:24.088Z,85.90
2022-08-16T04:44:57.566Z,85.95
2022-08-16T04:47:35.512Z,85.86
2022-08-16T04:50:14.537Z,85.94
2022-08-16T04:52:59.659Z,86.26
2022-08-16T04:55:38.157Z,85.84
2022-08-16T04:58:45.325Z,86.02
2022-08-16T05:00:59.514Z,86.15
2022-08-16T05:03:29.600Z,85.77
2022-08-16T05:06:04.846Z,85.63
2022-08-16T05:08:35.333Z,85.59
2022-08-16T05:11:15.485Z,85.66
2022-08-16T05:13:48.165Z,85.59
2022-08-16T05:16:24.941Z,85.45
2022-08-16T05:19:02.321Z,85.42
2022-08-16T05:21:35.980Z,85.16
2022-08-16T05:24:09.724Z,85.11
2022-08-16T05:26:43.005Z,84.85
2022-08-16T05:29:15.529Z,84.82
2022-08-16T05:31:57.951Z,84.95
2022-08-16T05:34:27.292Z,84.55
2022-08-16T05:36:58.787Z,84.24
2022-08-16T05:39:40.731Z,84.54
2022-08-16T05:42:09.962Z,84.52
2022-08-16T05:44:40.197Z,84.04
2022-08-16T05:47:15.222Z,84.04
2022-08-16T05:49:45.850Z,83.66
2022-08-16T05:52:20.872Z,83.51
2022-08-16T05:54:58.518Z,83.55
2022-08-16T05:57:35.631Z,83.83
2022-08-16T06:00:11.937Z,83.68
2022-08-16T06:02:44.754Z,83.82
2022-08-16T06:05:36.193Z,83.84
2022-08-16T06:08:10.139Z,83.86
2022-08-16T06:11:05.626Z,83.95
2022-08-16T06:13:42.348Z,83.53
2022-08-16T06:16:17.857Z,83.63
2022-08-16T06:18:48.249Z,83.38
2022-08-16T06:21:22.515Z,83.30
2022-08-16T06:23:54.742Z,85.40
2022-08-16T06:26:24.974Z,82.92
2022-08-16T06:29:07.714Z,83.11
2022-08-16T06:31:46.678Z,82.84
2022-08-16T06:34:55.665Z,82.58
2022-08-16T06:37:09.896Z,82.20
2022-08-16T06:39:49.259Z,80.73
2022-08-16T06:42:39.208Z,81.52
2022-08-16T06:45:43.395Z,82.25
2022-08-16T06:48:32.904Z,82.22
2022-08-16T06:51:05.879Z,81.47
2022-08-16T06:53:36.863Z,81.35
2022-08-16T06:56:14.805Z,80.98
2022-08-16T06:59:05.061Z,81.90
2022-08-16T07:01:45.230Z,81.17
2022-08-16T07:04:33.380Z,81.10
2022-08-16T07:07:15.329Z,81.34
2022-08-16T07:09:44.962Z,79.98
2022-08-16T07:12:15.376Z,79.92
2022-08-16T07:14:48.070Z,80.66
2022-08-16T07:17:21.675Z,83.40
2022-08-16T07:20:29.377Z,80.15
2022-08-16T07:22:52.963Z,80.68
2022-08-16T07:25:40.236Z,80.50
2022-08-16T07:28:20.744Z,80.01
2022-08-16T07:30:54.502Z,80.31
2022-08-16T07:33:53.409Z,79.82
2022-08-16T07:36:35.695Z,80.97
2022-08-16T07:39:05.027Z,79.30
2022-08-16T07:41:36.513Z,79.58
2022-08-16T07:44:16.382Z,82.41
2022-08-16T07:46:47.840Z,80.01
2022-08-16T07:49:24.884Z,79.36
2022-08-16T07:51:55.908Z,78.51
2022-08-16T07:54:37.914Z,78.54
2022-08-16T07:57:16.416Z,78.98
2022-08-16T07:59:48.905Z,77.93
2022-08-16T08:02:20.377Z,77.41
2022-08-16T08:04:53.940Z,77.58
2022-08-16T08:07:28.087Z,77.25
2022-08-16T08:09:58.376Z,77.10
2022-08-16T08:12:31.540Z,76.90
2022-08-16T08:15:09.590Z,77.16
2022-08-16T08:17:43.231Z,77.41
2022-08-16T08:20:20.771Z,77.35
2022-08-16T08:23:00.739Z,77.41
2022-08-16T08:25:54.061Z,76.06
2022-08-16T08:28:23.384Z,76.59
2022-08-16T08:31:02.495Z,75.19
2022-08-16T08:33:37.266Z,75.66
2022-08-16T08:36:08.562Z,75.12
2022-08-16T08:38:45.149Z,75.60
2022-08-16T08:41:18.900Z,75.84
2022-08-16T08:43:52.273Z,74.38
2022-08-16T08:46:23.825Z,74.74
2022-08-16T08:48:59.826Z,73.86
2022-08-16T08:51:37.318Z,74.96
2022-08-16T08:54:09.904Z,74.25
2022-08-16T08:56:45.472Z,74.67
2022-08-16T08:59:27.691Z,74.43
2022-08-16T09:01:58.623Z,71.87
2022-08-16T09:04:32.154Z,74.06
2022-08-16T09:07:04.214Z,74.54
2022-08-16T09:09:41.085Z,74.53
2022-08-16T09:12:36.371Z,74.17
2022-08-16T09:15:14.571Z,74.58
2022-08-16T09:17:51.891Z,74.02
2022-08-16T09:20:25.787Z,74.26
2022-08-16T09:22:56.504Z,74.15
2022-08-16T09:25:34.464Z,74.35
2022-08-16T09:28:10.650Z,73.59
2022-08-16T09:31:06.404Z,74.90
2022-08-16T09:33:37.357Z,72.82
2022-08-16T09:36:12.321Z,73.07
2022-08-16T09:38:59.809Z,74.26
2022-08-16T09:41:28.765Z,72.32
2022-08-16T09:44:00.665Z,71.88
2022-08-16T09:46:45.146Z,72.15
2022-08-16T09:49:20.008Z,73.22
2022-08-16T09:51:54.324Z,71.68
2022-08-16T09:54:32.154Z,71.80
2022-08-16T09:57:01.665Z,70.92
2022-08-16T09:59:38.819Z,70.33
2022-08-16T10:02:27.075Z,71.30
2022-08-16T10:04:58.678Z,71.68
2022-08-16T10:07:44.145Z,69.05
2022-08-16T10:10:18.648Z,71.07
2022-08-16T10:13:09.347Z,70.22
2022-08-16T10:15:40.061Z,71.13
2022-08-16T10:18:56.533Z,69.51
2022-08-16T10:21:01.865Z,69.75
2022-08-16T10:23:31.028Z,67.64
2022-08-16T10:27:17.071Z,67.79
2022-08-16T10:28:50.391Z,68.88
2022-08-16T10:31:43.420Z,67.93
2022-08-16T10:34:30.932Z,68.61
2022-08-16T10:36:57.125Z,68.26
2022-08-16T10:39:26.639Z,66.87
2022-08-16T10:42:13.118Z,68.01
2022-08-16T10:44:42.682Z,67.22
2022-08-16T10:47:22.583Z,67.44
2022-08-16T10:49:52.270Z,66.54
2022-08-16T10:52:21.205Z,66.00
2022-08-16T10:55:40.835Z,66.04
2022-08-16T10:57:42.251Z,67.53
2022-08-16T11:00:21.754Z,65.16
2022-08-16T11:03:00.184Z,66.01
2022-08-16T11:08:35.127Z,65.78
2022-08-16T11:11:11.817Z,65.55
2022-08-16T11:14:06.043Z,64.95
2022-08-16T11:19:30.154Z,64.36
2022-08-16T11:22:38.407Z,63.12
2022-08-16T11:25:11.819Z,65.86
2022-08-16T11:27:39.160Z,64.85
2022-08-16T11:30:12.296Z,62.69
2022-08-16T11:32:48.893Z,64.28
2022-08-16T11:38:47.213Z,64.43
2022-08-16T11:41:06.163Z,64.15
2022-08-16T11:43:38.653Z,60.87
2022-08-16T11:46:43.516Z,60.73
2022-08-16T11:48:59.936Z,63.23
2022-08-16T11:51:28.792Z,60.24
2022-08-16T11:53:57.921Z,59.51
2022-08-16T11:56:37.611Z,58.15
2022-08-16T11:59:15.262Z,59.00
2022-08-16T12:01:58.917Z,56.47
2022-08-16T12:04:28.431Z,59.10
2022-08-16T12:06:57.562Z,56.15
2022-08-16T12:09:29.660Z,54.25
2022-08-16T12:12:02.999Z,54.02
2022-08-16T12:14:35.208Z,53.43
2022-08-16T12:17:08.120Z,53.15
2022-08-16T12:19:38.339Z,51.79
2022-08-16T12:22:19.030Z,51.24
2022-08-16T12:24:52.213Z,51.95
2022-08-16T12:27:24.172Z,46.85
2022-08-16T12:29:54.128Z,46.39
2022-08-16T12:32:37.693Z,44.41
2022-08-16T12:35:12.281Z,46.55
2022-08-16T12:37:43.014Z,45.99
2022-08-16T12:40:25.088Z,43.20
2022-08-16T12:43:00.864Z,44.47
2022-08-16T12:45:35.583Z,44.88
2022-08-16T12:48:33.713Z,44.50
2022-08-16T12:51:13.757Z,45.38
2022-08-16T12:53:53.773Z,43.96
2022-08-16T12:56:26.301Z,43.33
2022-08-16T12:58:56.768Z,42.97
2022-08-16T13:01:29.882Z,43.44
2022-08-16T13:04:19.631Z,43.08
2022-08-16T13:06:52.418Z,43.11
2022-08-16T13:09:26.711Z,44.39
2022-08-16T13:12:19.488Z,42.42
2022-08-16T13:14:49.991Z,43.37
2022-08-16T13:17:20.523Z,42.93
2022-08-16T13:20:09.762Z,45.12
2022-08-16T13:22:46.479Z,43.07
2022-08-16T13:25:20.819Z,41.08
2022-08-16T13:28:03.207Z,40.50
2022-08-16T13:30:42.400Z,40.50
2022-08-16T13:33:17.556Z,40.26
2022-08-16T13:35:55.470Z,39.53
2022-08-16T13:38:31.346Z,39.81
2022-08-16T13:41:12.632Z,39.72
2022-08-16T13:43:42.541Z,38.89
2022-08-16T13:46:11.317Z,37.14
2022-08-16T13:48:44.410Z,36.21
2022-08-16T13:51:17.771Z,36.76
2022-08-16T13:53:54.183Z,36.52
2022-08-16T13:56:38.215Z,36.24
2022-08-16T13:59:19.769Z,36.26
2022-08-16T14:01:56.734Z,35.83
2022-08-16T14:04:31.969Z,35.64
2022-08-16T14:07:02.525Z,36.09
2022-08-16T14:09:33.229Z,36.96
2022-08-16T14:12:09.587Z,37.87
2022-08-16T14:14:38.413Z,38.81
2022-08-16T14:17:09.880Z,39.92
2022-08-16T14:19:45.109Z,41.09
2022-08-16T14:22:31.502Z,42.30
2022-08-16T14:25:03.011Z,43.42
2022-08-16T14:27:32.870Z,44.40
2022-08-16T14:30:02.114Z,45.05
2022-08-16T14:32:34.448Z,46.00
2022-08-16T14:35:11.479Z,46.90
2022-08-16T14:37:42.984Z,47.69
2022-08-16T14:40:15.452Z,48.83
2022-08-16T14:42:47.909Z,49.90
2022-08-16T14:45:20.586Z,50.74
2022-08-16T14:47:51.529Z,51.52
2022-08-16T14:50:23.810Z,52.38
2022-08-16T14:53:03.873Z,53.06
2022-08-16T14:55:36.559Z,53.17
2022-08-16T14:58:06.385Z,53.92
2022-08-16T15:00:50.265Z,54.01
2022-08-16T15:03:22.466Z,55.03
2022-08-16T15:05:54.030Z,55.87
2022-08-16T15:08:34.111Z,56.29
2022-08-16T15:11:07.557Z,55.61
2022-08-16T15:13:36.722Z,56.57
2022-08-16T15:16:05.803Z,56.75
2022-08-16T15:18:35.160Z,55.98
2022-08-16T15:21:08.553Z,54.58
2022-08-16T15:23:41.304Z,56.12
2022-08-16T15:26:18.537Z,58.13
2022-08-16T15:29:00.685Z,60.83
2022-08-16T15:31:29.990Z,63.28
2022-08-16T15:34:00.102Z,63.72
2022-08-16T15:36:29.604Z,64.93
2022-08-16T15:39:31.686Z,64.98
2022-08-16T15:42:28.585Z,66.49
2022-08-16T15:45:40.766Z,67.63
2022-08-16T15:48:22.063Z,69.49
2022-08-16T15:51:08.275Z,70.06
2022-08-16T15:54:05.577Z,70.25
2022-08-16T15:56:46.449Z,71.48
2022-08-16T15:59:16.016Z,72.23
2022-08-16T16:01:45.212Z,72.25
2022-08-16T16:04:22.383Z,72.37
2022-08-16T16:07:01.227Z,72.44
2022-08-16T16:09:36.745Z,71.72
2022-08-16T16:12:43.807Z,71.19
2022-08-16T16:15:09.329Z,71.05
2022-08-16T16:17:38.159Z,71.57
2022-08-16T16:20:17.011Z,71.62
2022-08-16T16:22:51.630Z,72.01
2022-08-16T16:25:20.824Z,71.47
2022-08-16T16:27:59.633Z,72.16
2022-08-16T16:30:44.679Z,71.55
2022-08-16T16:33:21.170Z,71.51
2022-08-16T16:35:55.354Z,71.35
2022-08-16T16:38:45.571Z,71.21
2022-08-16T16:41:22.644Z,71.40
2022-08-16T16:44:18.272Z,71.78
2022-08-16T16:47:07.106Z,71.41
2022-08-16T16:49:41.826Z,71.31
2022-08-16T16:52:44.442Z,71.06
2022-08-16T16:55:06.507Z,71.03
2022-08-16T16:57:54.535Z,70.97
2022-08-16T17:00:25.665Z,71.38
2022-08-16T17:02:58.592Z,71.41
2022-08-16T17:05:32.412Z,71.60
2022-08-16T17:08:05.765Z,71.72
2022-08-16T17:10:45.990Z,72.12
2022-08-16T17:13:19.883Z,71.89
2022-08-16T17:15:50.132Z,71.81
2022-08-16T17:19:01.902Z,71.92
2022-08-16T17:21:15.475Z,71.68
2022-08-16T17:23:58.200Z,71.69
2022-08-16T17:26:33.402Z,71.96
2022-08-16T17:29:11.148Z,71.86
2022-08-16T17:31:40.927Z,72.12
2022-08-16T17:34:30.445Z,72.53
2022-08-16T17:37:05.436Z,72.91
2022-08-16T17:40:00.097Z,73.26
2022-08-16T17:42:26.094Z,73.45
2022-08-16T17:44:54.969Z,73.17
2022-08-16T17:47:23.656Z,73.01
2022-08-16T17:49:52.609Z,72.85
2022-08-16T17:52:22.297Z,72.89
2022-08-16T17:54:51.630Z,73.06
2022-08-16T17:57:20.199Z,73.04
2022-08-16T17:59:50.291Z,73.38
2022-08-16T18:02:43.505Z,73.28
2022-08-16T18:05:15.015Z,73.47
2022-08-16T18:07:45.517Z,73.47
2022-08-16T18:10:15.065Z,73.47
2022-08-16T18:13:04.368Z,73.82
2022-08-16T18:15:37.656Z,74.08
2022-08-16T18:18:06.621Z,74.09
2022-08-16T18:20:54.685Z,74.22
2022-08-16T18:23:26.327Z,74.41
2022-08-16T18:25:58.462Z,74.16
2022-08-16T18:28:29.345Z,74.46
2022-08-16T18:31:01.113Z,74.56
2022-08-16T18:33:37.626Z,74.51
2022-08-16T18:36:20.807Z,74.32
2022-08-16T18:38:51.510Z,74.45
2022-08-16T18:41:22.397Z,74.62
2022-08-16T18:44:23.088Z,74.75
2022-08-16T18:46:46.054Z,74.98
2022-08-16T18:49:20.149Z,75.14
2022-08-16T18:51:51.107Z,75.14
2022-08-16T18:54:20.515Z,75.37
2022-08-16T18:56:56.298Z,75.68
2022-08-16T18:59:30.858Z,75.78
2022-08-16T19:02:05.168Z,75.87
2022-08-16T19:04:50.601Z,75.88
2022-08-16T19:07:30.456Z,75.94
2022-08-16T19:10:02.023Z,76.32
2022-08-16T19:12:37.804Z,75.68
2022-08-16T19:15:18.777Z,75.08
2022-08-16T19:17:47.986Z,74.86
2022-08-16T19:20:20.915Z,74.92
2022-08-16T19:23:05.450Z,75.10
2022-08-16T19:25:46.770Z,75.13
2022-08-16T19:28:51.910Z,75.36
2022-08-16T19:31:18.537Z,75.35
2022-08-16T19:33:53.627Z,75.41
2022-08-16T19:36:34.065Z,75.33
2022-08-16T19:39:14.167Z,75.61
2022-08-16T19:41:52.031Z,75.63
2022-08-16T19:44:23.698Z,75.56
2022-08-16T19:46:52.345Z,75.34
2022-08-16T19:49:20.891Z,75.30
2022-08-16T19:51:52.619Z,75.38
2022-08-16T19:54:24.050Z,75.28
2022-08-16T19:56:52.757Z,75.26
2022-08-16T19:59:39.242Z,75.32
2022-08-16T20:02:32.611Z,75.43
2022-08-16T20:05:05.510Z,75.58
2022-08-16T20:07:34.322Z,75.47
2022-08-16T20:10:05.979Z,75.49
2022-08-16T20:12:34.784Z,75.50
2022-08-16T20:15:06.681Z,75.14
2022-08-16T20:17:35.111Z,75.10
2022-08-16T20:20:04.787Z,75.34
2022-08-16T20:23:02.577Z,74.77
2022-08-16T20:25:28.817Z,74.99
2022-08-16T20:27:59.187Z,75.11
2022-08-16T20:30:29.128Z,75.30
2022-08-16T20:33:00.654Z,75.30
2022-08-16T20:35:29.676Z,75.12
2022-08-16T20:38:00.098Z,75.17
2022-08-16T20:40:35.087Z,75.09
2022-08-16T20:43:07.872Z,75.13
2022-08-16T20:45:38.393Z,75.15
2022-08-16T20:48:07.545Z,75.04
2022-08-16T20:50:38.766Z,75.02
2022-08-16T20:53:08.395Z,74.97
2022-08-16T20:55:40.155Z,75.06
2022-08-16T20:58:08.995Z,74.99
2022-08-16T21:00:40.595Z,74.89
2022-08-16T21:03:12.247Z,75.26
2022-08-16T21:05:41.178Z,75.07
2022-08-16T21:08:50.033Z,75.02
2022-08-16T21:11:00.839Z,74.94
2022-08-16T21:13:33.314Z,74.87
2022-08-16T21:16:02.937Z,74.96
2022-08-16T21:18:31.915Z,75.03
2022-08-16T21:21:00.702Z,75.10
2022-08-16T21:23:31.439Z,75.30
2022-08-16T21:26:00.043Z,75.53
2022-08-16T21:28:41.621Z,75.72
2022-08-16T21:31:13.042Z,75.98
2022-08-16T21:33:43.463Z,76.12
2022-08-16T21:36:12.827Z,76.30
2022-08-16T21:38:41.576Z,76.40
2022-08-16T21:41:12.990Z,76.34
2022-08-16T21:43:42.162Z,76.51
2022-08-16T21:46:10.808Z,76.43
2022-08-16T21:48:40.540Z,76.25
2022-08-16T21:51:14.995Z,76.07
2022-08-16T21:53:44.648Z,76.10
2022-08-16T21:56:16.848Z,76.00
2022-08-16T21:58:53.073Z,75.92
2022-08-16T22:01:23.410Z,75.59
2022-08-16T22:04:03.636Z,75.49
2022-08-16T22:06:42.818Z,75.53
2022-08-16T22:09:15.502Z,75.52
2022-08-16T22:11:44.913Z,75.62
2022-08-16T22:14:13.458Z,75.60
2022-08-16T22:16:43.605Z,75.54
2022-08-16T22:19:13.596Z,75.51
2022-08-16T22:21:43.072Z,75.59
2022-08-16T22:24:11.782Z,75.60
2022-08-16T22:26:43.310Z,75.51
2022-08-16T22:29:13.122Z,75.42
2022-08-16T22:31:43.335Z,75.81
2022-08-16T22:34:13.976Z,75.55
2022-08-16T22:36:42.699Z,75.49
2022-08-16T22:39:14.013Z,75.56
2022-08-16T22:41:45.674Z,75.60
2022-08-16T22:44:14.378Z,75.70
2022-08-16T22:46:42.990Z,75.99
2022-08-16T22:49:12.772Z,75.59
2022-08-16T22:51:42.008Z,75.52
2022-08-16T22:54:41.422Z,75.49
2022-08-16T22:56:59.923Z,75.56
2022-08-16T22:59:30.657Z,75.28
2022-08-16T23:02:09.923Z,75.07
2022-08-16T23:04:39.601Z,75.07
2022-08-16T23:07:08.289Z,75.06
2022-08-16T23:09:36.782Z,75.06
2022-08-16T23:12:07.485Z,74.89
2022-08-16T23:14:36.391Z,74.95
2022-08-16T23:17:05.799Z,74.96
2022-08-16T23:19:34.640Z,74.98
2022-08-16T23:22:03.993Z,75.00
2022-08-16T23:24:37.218Z,75.01
2022-08-16T23:27:15.801Z,75.06
2022-08-16T23:29:44.753Z,74.98
2022-08-16T23:32:13.765Z,74.88
2022-08-16T23:34:42.394Z,74.83
2022-08-16T23:37:10.782Z,74.80
2022-08-16T23:39:39.462Z,74.76
2022-08-16T23:42:15.493Z,74.79
2022-08-16T23:45:05.402Z,74.96
2022-08-16T23:47:34.019Z,74.88
2022-08-16T23:50:04.187Z,74.84
2022-08-16T23:52:42.204Z,74.90
2022-08-16T23:55:22.424Z,75.04
2022-08-16T23:57:52.384Z,75.14
